Time;durP1;ratioP1;P1;durP2;ratioP2;P2;SDS_P1;SDS_P2;PMS_P1;PMS_P2;Temp;Humidity;BMP_temperature;BMP_pressure;BME280_temperature;BME280_humidity;BME280_pressure;Samples;Min_cycle;Max_cycle;Signal;HPM_P1;HPM_P2
2022/08/24 00:01:24;;;;;;;11.50;6.25;;;;;;;21.76;69.33;98556.44;4487538;31;20164;-91
2022/08/24 00:03:50;;;;;;;11.95;5.82;;;;;;;21.41;71.15;98565.47;4487662;31;20234;-90
2022/08/24 00:06:20;;;;;;;13.38;6.57;;;;;;;21.72;69.93;98565.81;4486732;32;20081;-91
2022/08/24 00:08:47;;;;;;;11.48;5.95;;;;;;;21.40;71.37;98561.94;4486488;32;20139;-87
2022/08/24 00:11:12;;;;;;;12.93;6.43;;;;;;;21.60;70.34;98559.91;4486401;32;20105;-89
2022/08/24 00:13:38;;;;;;;12.15;5.85;;;;;;;21.60;70.45;98557.22;4486232;32;20092;-88
2022/08/24 00:16:05;;;;;;;11.98;6.28;;;;;;;21.58;70.62;98547.66;4486653;32;20136;-88
2022/08/24 00:18:32;;;;;;;14.13;5.85;;;;;;;21.62;70.58;98540.97;4487700;31;20104;-89
2022/08/24 00:20:57;;;;;;;12.70;5.90;;;;;;;21.86;69.55;98544.75;4487823;31;20100;-89
2022/08/24 00:23:23;;;;;;;11.82;6.55;;;;;;;21.41;71.73;98546.69;4486273;32;20088;-89
2022/08/24 00:25:48;;;;;;;12.25;5.90;;;;;;;21.41;71.46;98550.22;4487449;31;20123;-89
2022/08/24 00:28:14;;;;;;;11.02;5.80;;;;;;;21.73;70.33;98542.53;4486578;31;20134;-88
2022/08/24 00:30:41;;;;;;;12.10;6.20;;;;;;;21.30;72.22;98547.78;4487305;31;20092;-89
2022/08/24 00:33:07;;;;;;;13.18;5.75;;;;;;;21.47;71.58;98547.94;4487431;31;20091;-91
2022/08/24 00:35:32;;;;;;;11.73;5.40;;;;;;;21.44;71.31;98548.25;4487320;31;20377;-91
2022/08/24 00:37:58;;;;;;;10.48;5.28;;;;;;;21.62;70.79;98543.66;4487383;31;20092;-91
2022/08/24 00:40:28;;;;;;;10.68;5.65;;;;;;;21.50;71.24;98542.25;4487399;31;20084;-91
2022/08/24 00:42:55;;;;;;;11.25;5.80;;;;;;;21.20;72.74;98547.06;4486075;32;20096;-90
2022/08/24 00:45:21;;;;;;;12.40;5.72;;;;;;;21.39;71.89;98546.84;4486028;32;20455;-89
2022/08/24 00:48:03;;;;;;;11.32;5.03;;;;;;;21.17;72.97;98547.38;4486095;32;20149;-90
2022/08/24 00:50:37;;;;;;;11.80;5.85;;;;;;;21.47;71.47;98542.59;4487340;31;20093;-90
2022/08/24 00:53:07;;;;;;;11.20;5.28;;;;;;;21.18;72.50;98544.53;4486068;32;20096;-91
2022/08/24 00:55:36;;;;;;;10.73;4.95;;;;;;;21.47;71.18;98539.91;4486018;32;20092;-91
2022/08/24 00:58:07;;;;;;;11.05;5.40;;;;;;;21.62;70.52;98543.66;4472842;32;20131;-89
2022/08/24 01:00:40;;;;;;;10.15;4.90;;;;;;;21.87;69.07;98531.19;4486220;32;20489;-91
2022/08/24 01:03:06;;;;;;;11.27;5.60;;;;;;;22.13;67.91;98535.63;4487540;31;20144;-90
2022/08/24 01:05:34;;;;;;;11.52;4.80;;;;;;;21.98;68.37;98540.78;4487381;31;20139;-90
2022/08/24 01:08:01;;;;;;;12.32;5.43;;;;;;;22.26;67.28;98533.34;4486335;32;20104;-91
2022/08/24 01:10:28;;;;;;;;;;;;;;;21.88;68.72;98537.41;4486408;32;20426;-87
2022/08/24 01:12:57;;;;;;;11.75;6.30;;;;;;;21.93;68.72;98538.59;4486289;32;20318;-87
2022/08/24 01:15:22;;;;;;;14.80;7.12;;;;;;;21.82;69.08;98535.38;4486198;32;20072;-87
2022/08/24 01:20:33;;;;;;;14.10;7.10;;;;;;;21.53;70.54;98541.94;4486138;32;20155;-87
2022/08/24 01:23:33;;;;;;;12.30;6.50;;;;;;;21.40;70.93;98547.69;4487085;31;20081;-87
2022/08/24 01:25:59;;;;;;;13.73;7.28;;;;;;;21.41;70.81;98552.06;4487233;31;20341;-88
2022/08/24 01:28:25;;;;;;;12.85;7.28;;;;;;;21.26;71.75;98549.12;4485908;32;20125;-87
2022/08/24 01:30:51;;;;;;;12.27;6.50;;;;;;;21.52;70.67;98553.69;4486970;31;20148;-87
2022/08/24 01:33:28;;;;;;;13.93;7.28;;;;;;;21.37;71.20;98548.84;4486968;31;20084;-88
2022/08/24 01:36:00;;;;;;;14.48;7.75;;;;;;;21.26;71.50;98549.12;4472610;32;20092;-87
2022/08/24 01:38:26;;;;;;;14.65;7.60;;;;;;;21.24;71.84;98551.13;4485826;32;20211;-87
2022/08/24 01:40:57;;;;;;;13.02;6.97;;;;;;;21.12;72.49;98563.09;4486911;31;20087;-88
2022/08/24 01:43:23;;;;;;;16.50;8.38;;;;;;;21.43;71.13;98570.66;4485780;32;20111;-88
2022/08/24 01:45:49;;;;;;;15.20;8.30;;;;;;;21.53;70.38;98568.75;4486789;31;20080;-88
2022/08/24 01:48:15;;;;;;;13.57;7.78;;;;;;;21.39;70.94;98572.81;4486781;31;20135;-88
2022/08/24 01:50:41;;;;;;;14.45;7.72;;;;;;;21.27;71.77;98576.78;4485495;32;20096;-88
2022/08/24 01:53:07;;;;;;;15.25;8.95;;;;;;;21.32;71.62;98582.47;4486772;31;20143;-88
2022/08/24 01:55:33;;;;;;;16.70;9.10;;;;;;;20.95;73.24;98589.72;4472374;32;20088;-89
2022/08/24 01:57:59;;;;;;;14.75;8.18;;;;;;;21.04;72.83;98579.94;4486823;31;20112;-89
2022/08/24 02:00:24;;;;;;;15.10;9.15;;;;;;;21.18;72.25;98584.72;4486729;31;20087;-86
2022/08/24 02:02:50;;;;;;;16.20;9.05;;;;;;;20.81;74.14;98584.94;4485485;32;20088;-87
2022/08/24 02:05:16;;;;;;;15.23;9.05;;;;;;;20.92;73.59;98581.16;4485619;32;20103;-87
2022/08/24 02:07:42;;;;;;;15.88;9.15;;;;;;;20.84;73.63;98581.94;4486620;31;20104;-89
2022/08/24 02:10:10;;;;;;;15.20;8.70;;;;;;;20.73;74.80;98577.69;4486596;31;20088;-90
2022/08/24 02:12:37;;;;;;;16.40;8.93;;;;;;;20.98;73.50;98581.41;4486792;31;20080;-89
2022/08/24 02:15:05;;;;;;;15.67;8.57;;;;;;;21.11;72.71;98581.00;4485641;32;20106;-89
2022/08/24 02:17:30;;;;;;;15.60;8.60;;;;;;;20.97;73.33;98578.88;4486649;31;20203;-88
2022/08/24 02:19:56;;;;;;;15.73;8.70;;;;;;;20.92;73.63;98576.69;4486399;32;20077;-90
2022/08/24 02:22:21;;;;;;;15.75;8.20;;;;;;;20.99;73.05;98576.88;4486621;31;20145;-89
2022/08/24 02:24:46;;;;;;;15.35;8.77;;;;;;;20.84;73.50;98578.44;4485131;32;20122;-89
2022/08/24 02:27:13;;;;;;;17.12;9.52;;;;;;;21.07;72.85;98584.97;4486377;31;20115;-88
2022/08/24 02:29:38;;;;;;;14.75;8.18;;;;;;;20.73;74.49;98592.91;4485260;32;20103;-90
2022/08/24 02:32:06;;;;;;;15.57;9.40;;;;;;;21.16;72.31;98583.22;4486230;31;20110;-89
2022/08/24 02:34:31;;;;;;;16.35;9.35;;;;;;;20.97;73.25;98585.06;4472109;32;20106;-88
2022/08/24 02:36:56;;;;;;;15.93;8.82;;;;;;;21.12;72.42;98596.06;4486178;31;20128;-89
2022/08/24 02:39:22;;;;;;;14.77;7.85;;;;;;;21.32;71.21;98593.19;4486284;31;20092;-89
2022/08/24 02:41:48;;;;;;;15.30;8.88;;;;;;;21.12;72.41;98588.03;4486199;31;20084;-89
2022/08/24 02:44:13;;;;;;;16.45;8.50;;;;;;;21.31;71.34;98586.16;4486075;31;20367;-89
2022/08/24 02:46:38;;;;;;;15.80;8.55;;;;;;;21.18;72.05;98587.41;4486094;31;20150;-89
2022/08/24 02:49:04;;;;;;;15.98;7.93;;;;;;;21.06;72.53;98591.34;4484674;32;20146;-89
2022/08/24 02:51:32;;;;;;;15.95;8.75;;;;;;;21.42;70.78;98580.53;4487035;31;20103;-90
2022/08/24 02:53:57;;;;;;;;;;;;;;;21.05;72.47;98584.28;4487302;32;20139;-89
2022/08/24 02:56:23;;;;;;;13.90;7.50;;;;;;;20.89;73.39;98585.00;4486753;32;19994;-89
2022/08/24 02:58:49;;;;;;;13.95;7.30;;;;;;;21.05;72.57;98580.78;4488158;31;20622;-88
2022/08/24 03:01:16;;;;;;;12.82;6.12;;;;;;;21.04;72.74;98587.16;4488050;32;20133;-89
2022/08/24 03:03:41;;;;;;;11.77;5.53;;;;;;;21.43;70.79;98584.06;4488007;31;20114;-88
2022/08/24 03:06:07;;;;;;;12.82;6.43;;;;;;;21.39;70.84;98580.84;4486891;32;20157;-88
2022/08/24 03:08:33;;;;;;;12.57;5.47;;;;;;;21.14;72.13;98577.16;4487961;31;20542;-88
2022/08/24 03:10:59;;;;;;;12.73;5.25;;;;;;;21.27;71.38;98566.88;4486848;32;20096;-88
2022/08/24 03:13:26;;;;;;;12.45;5.03;;;;;;;21.58;70.47;98561.06;4488241;31;20364;-89
2022/08/24 03:15:52;;;;;;;10.85;5.50;;;;;;;21.76;69.50;98569.84;4488214;31;20096;-89
2022/08/24 03:18:18;;;;;;;12.07;5.15;;;;;;;21.68;69.92;98567.16;4488248;32;20476;-89
2022/08/24 03:20:43;;;;;;;11.55;6.28;;;;;;;21.91;68.72;98583.50;4486935;32;20116;-88
2022/08/24 03:23:09;;;;;;;14.32;6.50;;;;;;;21.55;70.00;98582.81;4488187;32;20111;-88
2022/08/24 03:25:34;;;;;;;14.68;6.47;;;;;;;21.59;69.67;98586.84;4488137;31;20409;-88
2022/08/24 03:28:01;;;;;;;11.80;4.97;;;;;;;21.49;69.98;98584.28;4488119;32;20396;-87
2022/08/24 03:30:27;;;;;;;12.13;5.65;;;;;;;21.65;69.56;98586.22;4488116;31;20122;-88
2022/08/24 03:32:53;;;;;;;11.07;4.70;;;;;;;21.86;68.52;98571.59;4488105;31;20079;-87
2022/08/24 03:35:20;;;;;;;10.52;4.82;;;;;;;21.85;68.62;98575.28;4488062;31;20139;-87
2022/08/24 03:37:46;;;;;;;11.90;5.20;;;;;;;21.66;69.43;98585.22;4488039;31;20118;-87
2022/08/24 03:40:12;;;;;;;11.00;5.05;;;;;;;21.57;70.07;98575.47;4486565;32;20110;-87
2022/08/24 03:42:38;;;;;;;13.02;5.70;;;;;;;21.83;68.88;98575.44;4486600;32;20265;-87
2022/08/24 03:45:04;;;;;;;12.82;6.10;;;;;;;21.62;69.43;98577.69;4487775;31;20100;-87
2022/08/24 03:47:29;;;;;;;12.55;5.43;;;;;;;21.84;68.27;98576.28;4486405;32;20520;-86
2022/08/24 03:49:55;;;;;;;11.18;5.22;;;;;;;21.85;68.33;98575.28;4487622;31;20106;-89
2022/08/24 03:52:21;;;;;;;11.25;4.50;;;;;;;22.03;67.63;98580.53;4487521;31;20111;-89
2022/08/24 03:54:46;;;;;;;11.68;4.97;;;;;;;22.10;67.55;98578.91;4486602;32;20084;-88
2022/08/24 03:57:13;;;;;;;12.82;5.53;;;;;;;22.18;67.35;98581.59;4487847;31;20148;-88
2022/08/24 03:59:38;;;;;;;13.65;5.65;;;;;;;22.29;67.12;98589.38;4487782;31;20088;-89
2022/08/24 04:02:04;;;;;;;11.05;5.60;;;;;;;22.27;67.14;98583.34;4486187;32;20416;-90
2022/08/24 04:04:30;;;;;;;13.38;5.60;;;;;;;22.27;67.16;98590.53;4486258;32;20152;-89
2022/08/24 04:06:56;;;;;;;11.40;5.18;;;;;;;22.11;67.71;98589.44;4487894;31;20092;-89
2022/08/24 04:09:22;;;;;;;12.52;5.00;;;;;;;22.53;66.23;98593.13;4486625;32;20531;-89
2022/08/24 04:11:47;;;;;;;11.75;5.37;;;;;;;22.06;67.39;98594.47;4487905;31;20106;-90
2022/08/24 04:14:15;;;;;;;10.30;5.07;;;;;;;22.38;66.44;98593.75;4487693;32;20104;-89
2022/08/24 04:16:40;;;;;;;10.85;5.00;;;;;;;22.43;66.31;98593.28;4486603;32;20134;-90
2022/08/24 04:19:06;;;;;;;12.20;5.30;;;;;;;22.47;66.25;98588.44;4486345;32;20119;-86
2022/08/24 04:21:33;;;;;;;14.43;5.57;;;;;;;22.61;65.61;98590.44;4487488;31;20108;-88
2022/08/24 04:23:59;;;;;;;;;;;;;;;22.62;65.43;98593.97;4487734;31;20097;-87
2022/08/24 04:26:27;;;;;;;11.10;4.82;;;;;;;22.50;65.90;98588.06;4487545;32;19976;-87
2022/08/24 04:28:53;;;;;;;11.10;5.20;;;;;;;22.71;65.18;98584.91;4486159;32;20160;-87
2022/08/24 04:31:19;;;;;;;11.18;5.28;;;;;;;22.65;65.50;98585.59;4487420;31;20111;-86
2022/08/24 04:33:46;;;;;;;11.02;5.20;;;;;;;22.55;65.74;98578.53;4486129;32;20418;-85
2022/08/24 04:36:12;;;;;;;;;;;;;;;22.80;64.90;98583.94;4486769;32;20104;-87
2022/08/24 04:38:38;;;;;;;10.20;4.72;;;;;;;23.05;64.25;98587.50;4486422;32;19986;-87
2022/08/24 04:41:05;;;;;;;11.80;4.95;;;;;;;23.15;63.70;98582.78;4486359;32;20071;-86
2022/08/24 04:43:31;;;;;;;12.73;5.43;;;;;;;23.11;64.00;98585.97;4487391;31;20100;-87
2022/08/24 04:45:57;;;;;;;12.50;4.87;;;;;;;22.85;64.78;98597.72;4487401;31;20151;-87
2022/08/24 04:48:22;;;;;;;11.68;4.90;;;;;;;23.11;63.97;98594.03;4472775;32;20096;-88
2022/08/24 04:50:48;;;;;;;12.25;5.28;;;;;;;22.82;64.93;98603.41;4487230;31;20095;-89
2022/08/24 04:53:14;;;;;;;11.43;5.12;;;;;;;22.83;64.82;98602.41;4487403;31;20123;-89
2022/08/24 04:55:48;;;;;;;13.43;5.97;;;;;;;22.79;65.32;98601.03;4485867;32;20116;-89
2022/08/24 04:58:16;;;;;;;12.95;5.35;;;;;;;22.37;67.11;98597.44;4486209;32;20479;-90
2022/08/24 05:00:41;;;;;;;;;;;;;;;22.91;65.23;98588.16;4486103;32;20528;-90
2022/08/24 05:03:07;;;;;;;11.65;4.82;;;;;;;23.40;63.80;98573.84;4486038;32;19976;-90
2022/08/24 05:05:33;;;;;;;11.57;5.20;;;;;;;23.45;63.62;98587.59;4485840;32;20104;-90
2022/08/24 05:07:59;;;;;;;12.32;5.03;;;;;;;23.61;62.97;98579.50;4487165;31;20455;-90
2022/08/24 05:10:24;;;;;;;11.52;5.35;;;;;;;23.34;63.92;98586.97;4487261;31;20072;-90
2022/08/24 05:12:50;;;;;;;11.48;5.37;;;;;;;23.44;63.19;98583.25;4472726;32;20100;-89
2022/08/24 05:15:15;;;;;;;11.25;5.15;;;;;;;23.41;63.59;98589.81;4486605;32;20088;-89
2022/08/24 05:17:41;;;;;;;10.88;5.18;;;;;;;23.61;63.09;98592.97;4472989;32;20398;-87
2022/08/24 05:20:09;;;;;;;11.75;5.37;;;;;;;23.48;63.84;98593.47;4486979;31;20073;-88
2022/08/24 05:22:34;;;;;;;;;;;;;;;23.62;63.38;98591.09;4486126;32;20112;-87
2022/08/24 05:25:00;;;;;;;10.35;4.70;;;;;;;23.73;62.85;98594.25;4487040;31;19980;-88
2022/08/24 05:27:25;;;;;;;14.60;5.50;;;;;;;24.00;61.89;98597.56;4487025;31;20088;-86
2022/08/24 05:29:55;;;;;;;11.95;5.05;;;;;;;24.38;60.02;98592.34;4486913;32;20104;-86
2022/08/24 05:32:20;;;;;;;13.07;5.07;;;;;;;24.39;60.35;98590.47;4485739;32;20123;-87
2022/08/24 05:34:47;;;;;;;11.27;4.82;;;;;;;24.40;60.60;98594.88;4485655;32;20108;-88
2022/08/24 05:37:12;;;;;;;11.30;5.65;;;;;;;24.34;60.64;98588.34;4487051;31;20096;-88
2022/08/24 05:39:38;;;;;;;11.30;4.78;;;;;;;24.57;60.02;98588.41;4487012;32;20076;-90
2022/08/24 05:42:04;;;;;;;11.27;4.87;;;;;;;24.57;59.81;98596.47;4486885;31;20114;-91
2022/08/24 05:44:30;;;;;;;10.93;4.90;;;;;;;24.53;59.79;98605.91;4486913;31;20127;-90
2022/08/24 05:46:57;;;;;;;12.27;4.85;;;;;;;24.95;58.71;98598.37;4480258;32;212268;-89
2022/08/24 05:49:23;;;;;;;13.65;4.90;;;;;;;25.13;58.26;98604.31;4485556;32;20110;-88
2022/08/24 05:51:49;;;;;;;10.95;5.03;;;;;;;24.96;58.79;98602.78;4485658;32;20127;-87
2022/08/24 05:54:17;;;;;;;10.88;4.57;;;;;;;25.41;57.17;98593.78;4486845;31;20118;-87
2022/08/24 05:56:43;;;;;;;13.27;4.47;;;;;;;25.38;56.92;98590.63;4486596;31;20477;-88
2022/08/24 05:59:09;;;;;;;10.95;5.18;;;;;;;25.52;56.65;98592.50;4485582;32;20085;-89
2022/08/24 06:01:35;;;;;;;11.10;4.78;;;;;;;25.80;55.31;98589.16;4486724;31;20447;-88
2022/08/24 06:04:01;;;;;;;10.40;4.47;;;;;;;26.01;54.65;98586.56;4485436;32;20152;-87
2022/08/24 06:06:27;;;;;;;11.32;5.20;;;;;;;26.27;54.12;98579.84;4494696;31;20131;-93
2022/08/24 06:08:55;;;;;;;12.10;4.80;;;;;;;26.02;54.80;98584.72;4487902;31;20080;-87
2022/08/24 06:11:23;;;;;;;11.18;4.60;;;;;;;26.23;54.52;98586.62;4502547;31;20111;-88
2022/08/24 06:13:50;;;;;;;11.30;4.95;;;;;;;26.13;54.18;98586.94;4502417;31;20096;-89
2022/08/24 06:16:16;;;;;;;10.77;4.20;;;;;;;26.44;53.19;98588.53;4487957;31;20488;-90
2022/08/24 06:18:41;;;;;;;10.52;4.70;;;;;;;26.78;52.86;98584.37;4487930;31;20091;-94
2022/08/24 06:21:10;;;;;;;13.20;5.30;;;;;;;26.96;52.07;98594.72;4501742;31;20088;-91
2022/08/24 06:23:36;;;;;;;10.55;4.43;;;;;;;26.91;52.40;98589.03;4485843;31;20126;-91
2022/08/24 06:28:46;;;;;;;11.10;4.82;;;;;;;27.06;51.86;98592.50;4492572;31;20565;-90
2022/08/24 06:31:12;;;;;;;14.07;5.25;;;;;;;27.18;51.93;98593.69;4494162;31;20108;-91
2022/08/24 06:33:38;;;;;;;12.43;4.80;;;;;;;27.16;51.02;98603.84;4494528;31;20107;-92
2022/08/24 06:36:04;;;;;;;11.02;5.30;;;;;;;27.29;51.00;98602.31;4493641;31;20439;-91
2022/08/24 06:38:29;;;;;;;11.20;4.87;;;;;;;27.15;50.95;98602.16;4492991;31;20112;-92
2022/08/24 06:40:55;;;;;;;12.43;5.03;;;;;;;26.83;51.89;98598.13;4494313;31;20132;-91
2022/08/24 06:43:20;;;;;;;12.90;4.97;;;;;;;27.13;51.36;98615.03;4493199;31;20156;-90
2022/08/24 06:45:47;;;;;;;10.95;4.90;;;;;;;27.40;49.91;98615.31;4493152;31;20080;-86
2022/08/24 06:48:12;;;;;;;10.98;4.93;;;;;;;27.17;50.96;98610.91;4501389;31;20110;-89
2022/08/24 06:50:38;;;;;;;13.90;5.00;;;;;;;27.57;49.92;98599.63;4487197;31;20128;-88
2022/08/24 06:53:04;;;;;;;11.43;4.75;;;;;;;27.63;50.31;98613.19;4501829;31;20160;-87
2022/08/24 06:55:30;;;;;;;11.98;4.53;;;;;;;27.40;49.66;98612.59;4501611;31;20080;-87
2022/08/24 06:57:55;;;;;;;11.50;4.72;;;;;;;27.54;49.80;98611.66;4501732;31;20123;-86
2022/08/24 07:00:21;;;;;;;12.52;4.80;;;;;;;27.54;49.88;98614.34;4501686;31;20095;-87
2022/08/24 07:02:47;;;;;;;10.23;4.57;;;;;;;27.72;50.03;98618.44;4494410;31;20119;-86
2022/08/24 07:05:13;;;;;;;12.95;4.80;;;;;;;27.71;48.38;98624.91;4493342;31;20091;-86
2022/08/24 07:07:38;;;;;;;9.95;4.68;;;;;;;27.88;48.34;98630.84;4493556;31;20435;-84
2022/08/24 07:10:05;;;;;;;11.43;4.37;;;;;;;27.96;48.48;98626.12;4490826;31;20383;-86
2022/08/24 07:12:31;;;;;;;9.30;4.22;;;;;;;28.32;47.79;98632.31;4485480;32;20097;-85
2022/08/24 07:14:56;;;;;;;12.32;4.53;;;;;;;28.43;47.18;98638.03;4485748;32;20080;-94
2022/08/24 07:17:22;;;;;;;14.77;5.00;;;;;;;28.54;46.70;98635.78;4471923;32;20088;-85
2022/08/24 07:19:47;;;;;;;11.00;4.07;;;;;;;28.53;46.62;98643.09;4490603;31;20100;-84
2022/08/24 07:22:13;;;;;;;12.70;4.87;;;;;;;28.60;46.95;98643.09;4485877;31;20089;-87
2022/08/24 07:24:39;;;;;;;10.35;4.37;;;;;;;28.58;46.14;98645.19;4471311;32;20385;-87
2022/08/24 07:27:05;;;;;;;11.43;4.18;;;;;;;28.50;46.81;98653.47;4485898;32;20465;-87
2022/08/24 07:29:31;;;;;;;10.02;4.07;;;;;;;28.80;46.57;98651.28;4483539;32;20092;-85
2022/08/24 07:31:57;;;;;;;10.77;4.30;;;;;;;28.85;46.43;98654.22;4484863;31;20092;-84
2022/08/24 07:34:22;;;;;;;11.68;4.05;;;;;;;28.79;46.24;98665.88;4485646;32;20329;-85
2022/08/24 07:36:49;;;;;;;10.88;4.90;;;;;;;28.52;46.41;98667.69;4486079;31;20094;-84
2022/08/24 07:39:15;;;;;;;15.27;4.53;;;;;;;27.83;48.62;98663.91;4488016;31;20096;-85
2022/08/24 07:41:43;;;;;;;11.80;4.90;;;;;;;28.29;47.94;98665.25;4488036;31;20130;-84
2022/08/24 07:44:08;;;;;;;10.68;4.40;;;;;;;28.39;47.81;98661.13;4486655;32;20085;-84
2022/08/24 07:46:34;;;;;;;10.45;4.68;;;;;;;28.56;47.99;98672.47;4487725;31;20072;-85
2022/08/24 07:48:59;;;;;;;11.27;5.05;;;;;;;28.73;47.36;98667.53;4486494;32;20103;-84
2022/08/24 07:51:26;;;;;;;14.05;5.53;;;;;;;29.02;46.31;98668.25;4486572;32;20114;-85
2022/08/24 07:53:51;;;;;;;11.05;5.00;;;;;;;29.08;46.75;98670.13;4487603;31;20088;-82
2022/08/24 07:56:17;;;;;;;11.38;5.10;;;;;;;29.21;46.42;98670.19;4487530;31;20374;-84
2022/08/24 07:58:43;;;;;;;11.45;4.57;;;;;;;29.21;46.58;98669.34;4487646;31;20095;-85
2022/08/24 08:01:09;;;;;;;11.88;4.62;;;;;;;29.51;45.61;98669.75;4487590;32;20108;-85
2022/08/24 08:03:35;;;;;;;12.97;4.57;;;;;;;29.52;45.58;98668.72;4487670;31;20088;-83
2022/08/24 08:06:05;;;;;;;11.63;4.40;;;;;;;29.57;45.38;98684.38;4487527;31;20148;-84
2022/08/24 08:08:31;;;;;;;10.63;4.43;;;;;;;29.73;44.76;98675.03;4487643;31;20123;-85
2022/08/24 08:10:57;;;;;;;10.25;4.55;;;;;;;29.93;44.74;98688.56;4486450;32;20459;-85
2022/08/24 08:13:22;;;;;;;15.30;4.25;;;;;;;29.79;44.04;98682.31;4486282;32;20123;-85
2022/08/24 08:15:49;;;;;;;10.25;4.55;;;;;;;29.54;45.19;98682.94;4487468;31;20347;-85
2022/08/24 08:18:14;;;;;;;12.00;4.53;;;;;;;29.13;46.45;98683.94;4487477;31;20119;-85
2022/08/24 08:20:41;;;;;;;11.32;5.05;;;;;;;29.10;46.38;98681.59;4487497;32;20092;-83
2022/08/24 08:25:53;;;;;;;12.15;4.85;;;;;;;29.60;44.98;98687.50;4486463;32;20495;-85
2022/08/24 08:28:18;;;;;;;;;;;;;;;29.81;44.78;98685.66;4486597;32;20108;-85
2022/08/24 08:30:44;;;;;;;11.02;5.05;;;;;;;29.86;44.25;98680.41;4487445;31;20311;-85
2022/08/24 08:33:11;;;;;;;11.77;4.95;;;;;;;29.54;45.06;98680.22;4487443;31;20161;-88
2022/08/24 08:35:37;;;;;;;12.32;4.32;;;;;;;29.77;44.88;98687.97;4487382;31;20084;-86
2022/08/24 08:38:03;;;;;;;11.45;4.22;;;;;;;29.93;44.96;98685.84;4487396;31;20096;-87
2022/08/24 08:41:01;;;;;;;11.40;4.65;;;;;;;30.03;44.50;98694.41;4486140;32;20084;-86
2022/08/24 08:43:47;;;;;;;11.95;4.70;;;;;;;30.23;43.71;98694.38;4422852;32;20645;-86
2022/08/24 08:46:37;;;;;;;10.65;4.50;;;;;;;29.85;44.29;98691.50;4410385;32;20128;-86
2022/08/24 08:49:14;;;;;;;10.93;4.18;;;;;;;30.05;44.44;98697.72;4422241;32;20159;-86
2022/08/24 08:52:14;;;;;;;11.00;4.53;;;;;;;29.56;45.76;98688.97;4423018;32;20124;-87
2022/08/24 08:54:58;;;;;;;11.80;4.35;;;;;;;29.41;45.79;98696.50;4423057;32;20186;-88
2022/08/24 08:57:32;;;;;;;12.40;4.70;;;;;;;29.57;44.67;98682.53;4422869;32;20188;-87
2022/08/24 09:00:15;;;;;;;14.07;4.43;;;;;;;29.98;44.20;98686.88;4422859;32;20169;-88
2022/08/24 09:02:58;;;;;;;10.93;4.30;;;;;;;30.13;43.83;98692.09;4423089;32;20511;-88
2022/08/24 09:05:42;;;;;;;11.05;4.10;;;;;;;30.31;42.70;98688.72;4422916;32;20224;-87
2022/08/24 09:08:18;;;;;;;11.20;4.50;;;;;;;30.02;43.80;98695.47;4422761;32;20103;-87
2022/08/24 09:10:49;;;;;;;10.50;3.92;;;;;;;30.05;43.88;98688.75;4410130;32;20121;-90
2022/08/24 09:13:27;;;;;;;12.40;4.45;;;;;;;30.31;43.81;98696.88;4422811;32;20136;-87
2022/08/24 09:15:58;;;;;;;11.63;4.50;;;;;;;30.47;42.62;98694.75;4422866;32;20124;-87
2022/08/24 09:18:35;;;;;;;11.95;4.15;;;;;;;30.51;42.68;98685.94;4424171;32;20171;-87
2022/08/24 09:21:14;;;;;;;15.50;4.78;;;;;;;30.62;42.90;98687.16;4487171;32;20104;-89
2022/08/24 09:23:53;;;;;;;11.48;3.92;;;;;;;30.81;42.25;98681.81;4485986;32;20143;-91
2022/08/24 09:27:09;;;;;;;13.32;4.10;;;;;;;31.02;41.61;98681.50;4487200;31;20087;-88
2022/08/24 09:29:56;;;;;;;11.02;4.12;;;;;;;30.94;41.06;98679.88;4422895;32;20089;-89
2022/08/24 09:32:27;;;;;;;12.05;4.00;;;;;;;30.87;41.51;98680.97;4422791;32;20101;-86
2022/08/24 09:35:08;;;;;;;12.32;4.20;;;;;;;30.98;41.07;98677.56;4410018;32;20117;-87
2022/08/24 09:38:00;;;;;;;12.70;3.83;;;;;;;30.90;41.87;98673.22;4422711;32;20106;-88
2022/08/24 09:41:05;;;;;;;12.18;4.40;;;;;;;30.42;42.34;98681.78;4419982;32;20104;-87
2022/08/24 09:43:39;;;;;;;10.02;3.95;;;;;;;30.36;42.23;98678.03;4409896;32;20190;-91
2022/08/24 09:46:40;;;;;;;10.05;3.97;;;;;;;30.54;42.12;98671.09;4422641;32;20127;-90
2022/08/24 09:49:31;;;;;;;12.23;4.35;;;;;;;30.85;41.34;98675.75;4422584;32;20124;-89
2022/08/24 09:52:30;;;;;;;13.57;4.22;;;;;;;31.09;40.61;98668.69;4409673;32;20113;-86
2022/08/24 09:54:58;;;;;;;11.43;4.05;;;;;;;31.29;40.18;98670.44;4422436;32;20105;-89
2022/08/24 09:57:51;;;;;;;11.18;3.92;;;;;;;31.30;39.73;98666.69;4421184;32;20132;-85
2022/08/24 10:00:23;;;;;;;12.60;4.25;;;;;;;31.39;39.38;98667.22;4421945;32;20106;-88
2022/08/24 10:03:11;;;;;;;12.82;4.47;;;;;;;31.45;39.62;98663.66;4409317;32;20369;-86
2022/08/24 10:06:03;;;;;;;11.30;4.70;;;;;;;31.14;39.63;98665.34;4477058;31;20095;-89
2022/08/24 10:08:56;;;;;;;12.30;4.87;;;;;;;30.58;40.67;98670.44;4479667;31;20089;-85
2022/08/24 10:11:34;;;;;;;13.30;4.60;;;;;;;30.32;40.82;98668.63;4485078;32;20148;-86
2022/08/24 10:14:14;;;;;;;10.63;4.20;;;;;;;30.81;40.53;98657.34;4471957;32;20090;-86
2022/08/24 10:17:01;;;;;;;13.43;4.60;;;;;;;31.10;40.02;98659.50;4486213;32;20605;-85
2022/08/24 10:19:39;;;;;;;13.40;4.30;;;;;;;30.98;40.20;98663.12;4486594;31;20569;-85
2022/08/24 10:22:11;;;;;;;12.02;4.35;;;;;;;31.22;40.43;98665.06;4486427;31;20172;-86
2022/08/24 10:25:15;;;;;;;11.80;4.18;;;;;;;30.95;40.12;98659.81;4486319;31;20103;-85
2022/08/24 10:27:58;;;;;;;13.15;5.10;;;;;;;31.07;40.27;98657.22;4477826;32;20476;-86
2022/08/24 10:30:49;;;;;;;13.62;4.15;;;;;;;31.25;40.34;98661.06;4486273;31;20092;-85
2022/08/24 10:33:24;;;;;;;13.70;4.50;;;;;;;31.13;40.00;98669.94;4486083;31;20088;-86
2022/08/24 10:36:23;;;;;;;12.93;4.40;;;;;;;30.26;41.77;98680.34;4486231;31;20088;-85
2022/08/24 10:45:44;;;;;;;15.65;5.20;;;;;;;31.00;40.70;98663.75;4485676;31;20127;-86
2022/08/24 10:48:42;;;;;;;16.17;5.97;;;;;;;31.06;40.96;98671.03;4498445;31;20490;-86
2022/08/24 10:51:33;;;;;;;15.68;5.82;;;;;;;31.00;40.86;98663.75;4485281;31;20524;-85
2022/08/24 10:53:59;;;;;;;17.58;6.87;;;;;;;31.05;41.05;98672.09;4487135;31;20171;-88
2022/08/24 10:56:55;;;;;;;15.45;6.15;;;;;;;30.34;42.01;98677.41;4501416;31;20130;-85
2022/08/24 10:59:35;;;;;;;17.33;6.35;;;;;;;30.61;42.00;98669.16;4501647;31;20122;-86
2022/08/24 11:02:29;;;;;;;16.45;6.35;;;;;;;30.54;42.13;98668.38;4487453;31;20112;-86
2022/08/24 11:05:12;;;;;;;19.83;7.47;;;;;;;30.54;42.31;98673.81;4493172;31;20088;-86
2022/08/24 11:07:55;;;;;;;17.55;7.20;;;;;;;30.47;42.68;98667.56;4486908;31;20100;-86
2022/08/24 11:10:27;;;;;;;18.40;7.18;;;;;;;30.46;42.70;98672.16;4487139;31;20173;-85
2022/08/24 11:12:53;;;;;;;20.15;7.10;;;;;;;30.29;43.13;98671.78;4502931;31;20134;-86
2022/08/24 11:15:25;;;;;;;21.27;8.52;;;;;;;30.36;43.36;98675.31;4503893;31;20092;-86
2022/08/24 11:17:59;;;;;;;19.05;7.53;;;;;;;30.33;43.41;98675.75;4503675;31;20105;-86
2022/08/24 11:20:31;;;;;;;16.33;7.65;;;;;;;30.24;43.20;98673.47;4503820;31;20088;-85
2022/08/24 11:23:24;;;;;;;22.65;7.90;;;;;;;29.78;44.41;98680.66;4503812;31;20099;-86
2022/08/24 11:25:58;;;;;;;16.87;6.50;;;;;;;29.46;44.51;98677.72;4489397;31;20100;-85
2022/08/24 11:28:39;;;;;;;15.80;5.65;;;;;;;28.50;48.85;98704.94;4503710;31;20092;-85
2022/08/24 11:31:11;;;;;;;14.18;6.10;;;;;;;28.13;50.76;98707.88;4503640;31;20451;-85
2022/08/24 11:33:46;;;;;;;15.75;6.05;;;;;;;27.80;52.00;98707.63;4504041;31;20103;-85
2022/08/24 11:36:18;;;;;;;16.83;6.80;;;;;;;26.75;55.31;98709.88;4489264;31;20112;-85
2022/08/24 11:38:46;;;;;;;14.95;5.72;;;;;;;26.35;56.76;98709.38;4489327;31;20163;-85
2022/08/24 11:41:15;;;;;;;;;;;;;;;26.20;57.63;98703.97;4489729;31;20104;-85
2022/08/24 11:43:50;;;;;;;15.18;5.97;;;;;;;26.04;58.40;98714.97;4489220;31;19983;-85
2022/08/24 11:46:18;;;;;;;17.17;7.00;;;;;;;26.40;58.03;98715.03;4503596;31;20609;-86
2022/08/24 11:48:53;;;;;;;17.37;7.12;;;;;;;26.78;58.87;98714.91;4503511;31;20084;-85
2022/08/24 11:51:34;;;;;;;15.13;7.15;;;;;;;26.57;60.15;98721.06;4503563;31;20110;-85
2022/08/24 11:54:05;;;;;;;14.70;7.25;;;;;;;26.33;60.91;98719.53;4489002;31;20150;-85
2022/08/24 11:56:40;;;;;;;14.38;7.53;;;;;;;26.58;60.34;98716.50;4503406;31;20524;-85